Time;durP1;ratioP1;P1;durP2;ratioP2;P2;SDS_P1;SDS_P2;PMS_P1;PMS_P2;Temp;Humidity;BMP_temperature;BMP_pressure;BME280_temperature;BME280_humidity;BME280_pressure;Samples;Min_cycle;Max_cycle;Signal;HPM_P1;HPM_P2
2024/04/07 00:01:45;;;;;;;;;;;21.30;55.50;;;;;;4993354;28;19917;-78
2024/04/07 00:04:10;;;;;;;;;;;21.30;55.40;;;;;;4993539;28;19913;-78
2024/04/07 00:06:36;;;;;;;;;;;21.30;55.30;;;;;;4993434;28;20087;-78
2024/04/07 00:09:02;;;;;;;;;;;21.30;55.50;;;;;;4993466;28;19918;-78
2024/04/07 00:11:28;;;;;;;;;;;21.30;55.30;;;;;;4993354;28;19914;-78
2024/04/07 00:13:54;;;;;;;;;;;21.30;55.30;;;;;;4993381;28;19999;-78
2024/04/07 00:16:20;;;;;;;;;;;21.30;55.50;;;;;;4993237;28;19949;-78
2024/04/07 00:18:45;;;;;;;;;;;21.30;55.30;;;;;;4993463;28;20008;-78
2024/04/07 00:21:11;;;;;;;;;;;21.20;55.30;;;;;;4993207;28;19921;-78
2024/04/07 00:23:37;;;;;;;;;;;21.20;55.40;;;;;;4993056;28;19920;-78
2024/04/07 00:26:02;;;;;;;;;;;21.20;55.40;;;;;;4991977;28;19909;-78
2024/04/07 00:28:28;;;;;;;;;;;21.20;55.70;;;;;;4993422;28;20025;-80
2024/04/07 00:30:54;;;;;;;;;;;21.20;55.40;;;;;;4993131;28;19910;-80
2024/04/07 00:33:20;;;;;;;;;;;21.20;55.50;;;;;;4993061;28;19910;-80
2024/04/07 00:35:54;;;;;;;;;;;21.20;55.20;;;;;;4992929;28;19952;-80
2024/04/07 00:38:20;;;;;;;;;;;21.20;54.70;;;;;;4992800;28;19965;-80
2024/04/07 00:40:45;;;;;;;;;;;21.20;55.30;;;;;;4991534;28;19941;-80
2024/04/07 00:43:10;;;;;;;;;;;21.20;55.50;;;;;;4993535;28;19968;-80
2024/04/07 00:45:36;;;;;;;;;;;21.20;55.50;;;;;;4992836;28;20501;-80
2024/04/07 00:48:02;;;;;;;;;;;21.20;55.40;;;;;;4992589;28;19922;-80
2024/04/07 00:50:27;;;;;;;;;;;21.20;55.40;;;;;;4992720;28;20343;-80
2024/04/07 00:52:53;;;;;;;;;;;21.20;55.40;;;;;;4992742;28;20316;-80
2024/04/07 00:55:18;;;;;;;;;;;21.20;55.40;;;;;;4992717;28;19909;-79
2024/04/07 00:57:44;;;;;;;;;;;21.10;55.50;;;;;;4991219;28;19910;-80
2024/04/07 01:00:10;;;;;;;;;;;21.10;55.40;;;;;;4992872;28;20280;-80
2024/04/07 01:02:35;;;;;;;;;;;21.10;55.30;;;;;;4992467;28;19914;-80
2024/04/07 01:05:01;;;;;;;;;;;21.10;55.40;;;;;;4992421;28;19910;-80
2024/04/07 01:07:26;;;;;;;;;;;21.10;55.30;;;;;;5007337;28;19918;-81
2024/04/07 01:09:52;;;;;;;;;;;21.10;55.40;;;;;;4992503;28;19917;-80
2024/04/07 01:12:17;;;;;;;;;;;21.10;55.50;;;;;;5007299;28;19914;-80
2024/04/07 01:14:43;;;;;;;;;;;21.10;55.50;;;;;;4992365;28;19996;-80
2024/04/07 01:17:08;;;;;;;;;;;21.10;55.50;;;;;;4992439;28;19932;-80
2024/04/07 01:19:34;;;;;;;;;;;21.10;55.50;;;;;;4991144;28;19910;-82
2024/04/07 01:22:01;;;;;;;;;;;21.10;55.50;;;;;;4992426;28;19910;-79
2024/04/07 01:24:27;;;;;;;;;;;21.10;55.20;;;;;;4992464;28;20388;-80
2024/04/07 01:26:52;;;;;;;;;;;21.10;55.40;;;;;;4992266;28;19937;-79
2024/04/07 01:29:18;;;;;;;;;;;21.10;56.10;;;;;;4992368;28;19918;-80
2024/04/07 01:31:43;;;;;;;;;;;21.10;55.50;;;;;;4991024;28;20357;-80
2024/04/07 01:34:09;;;;;;;;;;;21.10;55.40;;;;;;4992331;28;19910;-80
2024/04/07 01:36:34;;;;;;;;;;;21.00;54.60;;;;;;4992211;28;19914;-80
2024/04/07 01:39:00;;;;;;;;;;;21.10;55.40;;;;;;4992292;28;19925;-80
2024/04/07 01:41:25;;;;;;;;;;;21.10;55.60;;;;;;4991412;28;19956;-80
2024/04/07 01:43:51;;;;;;;;;;;21.10;56.10;;;;;;4990902;28;19910;-80
2024/04/07 01:46:16;;;;;;;;;;;21.00;55.50;;;;;;4992292;28;20348;-80
2024/04/07 01:48:42;;;;;;;;;;;21.00;55.40;;;;;;4992137;28;19922;-80
2024/04/07 01:51:07;;;;;;;;;;;21.00;55.60;;;;;;4992222;28;19910;-80
2024/04/07 01:53:33;;;;;;;;;;;21.00;55.30;;;;;;4992451;28;19910;-80
2024/04/07 01:55:58;;;;;;;;;;;21.00;55.50;;;;;;4992221;28;19996;-80
2024/04/07 01:58:24;;;;;;;;;;;21.00;55.30;;;;;;4992259;28;20376;-80
2024/04/07 02:00:50;;;;;;;;;;;21.00;55.50;;;;;;4990799;28;19910;-80
2024/04/07 02:03:15;;;;;;;;;;;21.00;55.30;;;;;;4992166;28;20341;-80
2024/04/07 02:05:41;;;;;;;;;;;20.90;55.50;;;;;;4992141;28;19910;-80
2024/04/07 02:08:06;;;;;;;;;;;21.00;54.60;;;;;;5007521;28;19932;-80
2024/04/07 02:10:32;;;;;;;;;;;20.90;55.60;;;;;;4992356;28;19910;-80
2024/04/07 02:12:57;;;;;;;;;;;21.00;55.60;;;;;;4992239;28;19909;-80
2024/04/07 02:15:24;;;;;;;;;;;21.00;55.40;;;;;;4992245;28;20338;-80
2024/04/07 02:17:50;;;;;;;;;;;20.90;55.30;;;;;;4991929;28;20305;-80
2024/04/07 02:20:16;;;;;;;;;;;20.90;55.50;;;;;;4992362;28;19949;-80
2024/04/07 02:22:42;;;;;;;;;;;20.90;55.50;;;;;;4992063;28;19960;-79
2024/04/07 02:25:07;;;;;;;;;;;20.90;55.30;;;;;;4994667;28;19913;-80
2024/04/07 02:27:33;;;;;;;;;;;20.90;55.40;;;;;;4995285;28;20424;-80
2024/04/07 02:29:58;;;;;;;;;;;20.90;55.60;;;;;;4995289;28;20030;-80
2024/04/07 02:32:24;;;;;;;;;;;20.90;55.50;;;;;;4995191;28;19910;-80
2024/04/07 02:34:49;;;;;;;;;;;20.90;55.40;;;;;;4995243;28;20364;-80
2024/04/07 02:37:15;;;;;;;;;;;20.90;54.60;;;;;;4994062;28;19922;-80
2024/04/07 02:39:40;;;;;;;;;;;20.80;55.60;;;;;;4995142;28;19972;-80
2024/04/07 02:42:06;;;;;;;;;;;20.80;55.50;;;;;;4994977;28;19917;-80
2024/04/07 02:50:00;;;;;;;;;;;20.80;54.80;;;;;;4995251;28;19917;-80
2024/04/07 02:52:26;;;;;;;;;;;20.80;55.20;;;;;;4994875;28;19910;-80
2024/04/07 02:54:51;;;;;;;;;;;20.30;55.50;;;;;;4994831;28;19909;-80
2024/04/07 02:57:17;;;;;;;;;;;20.80;55.20;;;;;;4994714;28;19960;-80
2024/04/07 02:59:42;;;;;;;;;;;20.70;55.30;;;;;;4994781;28;19932;-80
2024/04/07 03:02:08;;;;;;;;;;;20.70;55.40;;;;;;4994508;28;19955;-80
2024/04/07 03:04:33;;;;;;;;;;;20.70;55.30;;;;;;4994565;28;19910;-80
2024/04/07 03:07:00;;;;;;;;;;;20.70;56.00;;;;;;4994886;28;19910;-80
2024/04/07 03:09:29;;;;;;;;;;;21.80;55.80;;;;;;4994430;28;20384;-80
2024/04/07 03:11:54;;;;;;;;;;;20.70;54.60;;;;;;4994399;28;19910;-79
2024/04/07 03:14:20;;;;;;;;;;;20.70;54.50;;;;;;4994481;28;19964;-80
2024/04/07 03:16:46;;;;;;;;;;;20.70;55.30;;;;;;4994360;28;19910;-80
2024/04/07 03:19:11;;;;;;;;;;;20.70;55.00;;;;;;4994389;28;19957;-80
2024/04/07 03:21:37;;;;;;;;;;;20.60;55.20;;;;;;4994271;28;20288;-80
2024/04/07 03:24:03;;;;;;;;;;;20.60;55.20;;;;;;4994274;28;19910;-79
2024/04/07 03:26:29;;;;;;;;;;;20.60;55.00;;;;;;4994113;28;19969;-79
2024/04/07 03:28:55;;;;;;;;;;;20.60;55.30;;;;;;4994374;28;19949;-80
2024/04/07 03:31:20;;;;;;;;;;;20.60;55.30;;;;;;4994118;28;19917;-80
2024/04/07 03:33:49;;;;;;;;;;;20.60;55.80;;;;;;4994533;28;20365;-80
2024/04/07 03:36:14;;;;;;;;;;;20.60;54.70;;;;;;4993066;28;19917;-80
2024/04/07 03:38:40;;;;;;;;;;;20.50;55.80;;;;;;4993911;28;20013;-80
2024/04/07 03:41:05;;;;;;;;;;;20.50;55.40;;;;;;4993930;28;19964;-80
2024/04/07 03:43:31;;;;;;;;;;;20.50;55.10;;;;;;4993710;28;19910;-80
2024/04/07 03:46:00;;;;;;;;;;;20.50;54.80;;;;;;4993814;28;20009;-80
2024/04/07 03:48:26;;;;;;;;;;;20.50;54.30;;;;;;4993665;28;20374;-80
2024/04/07 03:50:53;;;;;;;;;;;20.50;54.90;;;;;;4993060;28;21400;-80
2024/04/07 03:53:19;;;;;;;;;;;20.60;55.10;;;;;;4993634;28;19910;-80
2024/04/07 03:55:44;;;;;;;;;;;20.50;55.10;;;;;;4993590;28;19909;-79
2024/04/07 03:58:10;;;;;;;;;;;20.50;55.00;;;;;;4993598;28;20396;-80
2024/04/07 04:00:35;;;;;;;;;;;20.50;55.10;;;;;;4993638;28;19910;-79
2024/04/07 04:03:02;;;;;;;;;;;20.40;55.00;;;;;;4994165;28;20250;-79
2024/04/07 04:05:27;;;;;;;;;;;20.40;54.90;;;;;;4993479;28;19921;-79
2024/04/07 04:07:53;;;;;;;;;;;20.40;54.90;;;;;;4993363;28;19918;-79
2024/04/07 04:10:18;;;;;;;;;;;20.40;55.10;;;;;;4993381;28;19909;-79
2024/04/07 04:12:44;;;;;;;;;;;20.40;55.20;;;;;;4993316;28;19910;-79
2024/04/07 04:15:09;;;;;;;;;;;20.40;55.00;;;;;;4993257;28;19910;-79
2024/04/07 04:17:35;;;;;;;;;;;20.40;55.10;;;;;;4993139;28;20009;-80
2024/04/07 04:20:03;;;;;;;;;;;20.40;55.10;;;;;;4993253;28;19916;-79
2024/04/07 04:22:28;;;;;;;;;;;20.40;55.00;;;;;;4991742;28;19932;-79
2024/04/07 04:24:55;;;;;;;;;;;20.40;55.00;;;;;;4993140;28;20341;-79
2024/04/07 04:27:20;;;;;;;;;;;20.30;54.80;;;;;;4991603;28;19920;-79
2024/04/07 04:29:46;;;;;;;;;;;20.30;54.90;;;;;;4992914;28;20008;-79
2024/04/07 04:32:12;;;;;;;;;;;20.30;54.80;;;;;;4993477;28;20395;-79
2024/04/07 04:34:37;;;;;;;;;;;20.30;55.20;;;;;;4992874;28;19980;-78
2024/04/07 04:37:04;;;;;;;;;;;20.30;54.50;;;;;;4992476;28;19922;-78
2024/04/07 04:39:29;;;;;;;;;;;20.30;54.70;;;;;;4992658;28;19917;-78
2024/04/07 04:41:55;;;;;;;;;;;20.30;54.90;;;;;;4992731;28;19910;-78
2024/04/07 04:44:20;;;;;;;;;;;20.20;54.90;;;;;;4992864;28;19957;-78
2024/04/07 04:46:46;;;;;;;;;;;20.20;55.10;;;;;;4992220;28;19917;-78
2024/04/07 04:49:13;;;;;;;;;;;20.20;54.90;;;;;;4992145;28;19976;-78
2024/04/07 04:51:38;;;;;;;;;;;20.20;55.00;;;;;;4992812;28;19910;-78
2024/04/07 04:54:04;;;;;;;;;;;20.20;55.10;;;;;;4992637;28;19910;-78
2024/04/07 04:56:30;;;;;;;;;;;20.20;54.90;;;;;;4992549;28;19917;-78
2024/04/07 04:58:57;;;;;;;;;;;20.20;55.10;;;;;;4993084;28;20292;-78
2024/04/07 05:01:26;;;;;;;;;;;20.20;55.00;;;;;;4992668;28;20372;-78
2024/04/07 05:03:52;;;;;;;;;;;20.10;55.00;;;;;;4992292;28;19916;-78
2024/04/07 05:06:18;;;;;;;;;;;20.10;55.00;;;;;;4992295;28;19914;-78
2024/04/07 05:08:44;;;;;;;;;;;20.10;55.00;;;;;;4992294;28;19918;-78
2024/04/07 05:11:10;;;;;;;;;;;20.10;55.00;;;;;;4992390;28;19917;-78
2024/04/07 05:13:36;;;;;;;;;;;20.10;55.10;;;;;;4992123;28;20278;-78
2024/04/07 05:16:02;;;;;;;;;;;20.10;55.20;;;;;;4992088;28;19910;-78
2024/04/07 05:18:27;;;;;;;;;;;20.10;55.20;;;;;;4992154;28;19913;-78
2024/04/07 05:20:55;;;;;;;;;;;20.10;55.20;;;;;;4992075;28;20444;-78
2024/04/07 05:23:21;;;;;;;;;;;20.10;55.00;;;;;;4992211;28;19910;-78
2024/04/07 05:25:46;;;;;;;;;;;20.00;55.30;;;;;;4992391;28;19917;-78
2024/04/07 05:28:12;;;;;;;;;;;20.00;55.90;;;;;;4992589;28;19925;-78
2024/04/07 05:30:38;;;;;;;;;;;20.10;55.10;;;;;;4992051;28;19914;-78
2024/04/07 05:33:04;;;;;;;;;;;20.00;55.30;;;;;;4992113;28;20280;-78
2024/04/07 05:35:30;;;;;;;;;;;20.10;55.20;;;;;;4992059;28;19914;-78
2024/04/07 05:37:55;;;;;;;;;;;20.10;54.60;;;;;;4991744;28;19933;-78
2024/04/07 05:40:21;;;;;;;;;;;20.00;55.30;;;;;;4992155;28;19916;-78
2024/04/07 05:42:46;;;;;;;;;;;20.00;55.50;;;;;;4992019;28;19924;-77
2024/04/07 05:45:12;;;;;;;;;;;20.00;55.40;;;;;;4991929;28;20012;-78
2024/04/07 05:47:37;;;;;;;;;;;20.00;55.10;;;;;;4991858;28;19918;-78
2024/04/07 05:50:04;;;;;;;;;;;20.00;55.40;;;;;;4991993;28;19921;-78
2024/04/07 05:52:29;;;;;;;;;;;21.60;55.90;;;;;;4991970;28;20368;-78
2024/04/07 05:54:55;;;;;;;;;;;19.90;55.20;;;;;;4991831;28;19910;-77
2024/04/07 05:57:20;;;;;;;;;;;20.00;54.80;;;;;;4992842;28;19922;-78
2024/04/07 05:59:46;;;;;;;;;;;20.00;55.60;;;;;;4994144;28;19953;-78
2024/04/07 06:02:12;;;;;;;;;;;19.90;55.20;;;;;;4995604;28;20317;-78
2024/04/07 06:04:37;;;;;;;;;;;20.00;55.60;;;;;;4995592;28;19964;-78
2024/04/07 06:07:06;;;;;;;;;;;19.60;55.30;;;;;;4994109;28;19914;-78
2024/04/07 06:09:31;;;;;;;;;;;19.90;54.80;;;;;;4995651;28;20300;-78
2024/04/07 06:11:57;;;;;;;;;;;19.90;55.40;;;;;;4995449;28;19914;-78
2024/04/07 06:14:22;;;;;;;;;;;20.40;55.70;;;;;;4995411;28;19996;-78
2024/04/07 06:16:48;;;;;;;;;;;19.90;55.60;;;;;;4995496;28;20260;-78
2024/04/07 06:19:13;;;;;;;;;;;19.90;55.60;;;;;;4995289;28;19910;-80
2024/04/07 06:21:39;;;;;;;;;;;19.90;55.70;;;;;;4995222;28;19949;-78
2024/04/07 06:24:05;;;;;;;;;;;19.90;55.70;;;;;;4995245;28;19952;-77
2024/04/07 06:26:30;;;;;;;;;;;19.90;54.90;;;;;;4995531;28;20378;-78
2024/04/07 06:28:56;;;;;;;;;;;19.90;55.70;;;;;;4995079;28;19957;-78
2024/04/07 06:31:21;;;;;;;;;;;19.90;55.60;;;;;;4995200;28;19909;-78
2024/04/07 06:33:47;;;;;;;;;;;19.90;55.30;;;;;;4995212;28;20000;-79
2024/04/07 06:36:12;;;;;;;;;;;19.90;55.00;;;;;;4994951;28;19980;-80
2024/04/07 06:38:38;;;;;;;;;;;19.90;55.50;;;;;;5010279;28;19980;-79
2024/04/07 06:41:04;;;;;;;;;;;19.90;55.60;;;;;;4994942;28;19946;-79
2024/04/07 06:43:30;;;;;;;;;;;19.90;55.70;;;;;;5002360;28;19933;-78
2024/04/07 06:45:58;;;;;;;;;;;19.90;55.50;;;;;;5010333;28;19945;-78
2024/04/07 06:48:24;;;;;;;;;;;20.30;55.00;;;;;;4994779;28;19921;-78
2024/04/07 06:50:50;;;;;;;;;;;19.90;55.70;;;;;;4995217;28;19933;-79
2024/04/07 06:53:16;;;;;;;;;;;20.00;55.60;;;;;;4993543;28;19910;-78
2024/04/07 06:55:41;;;;;;;;;;;20.00;55.60;;;;;;4994850;28;20407;-80
2024/04/07 06:58:07;;;;;;;;;;;20.00;55.40;;;;;;4993439;28;19968;-79
2024/04/07 07:00:32;;;;;;;;;;;20.00;55.70;;;;;;4994665;28;19948;-78
2024/04/07 07:02:58;;;;;;;;;;;20.00;55.70;;;;;;4994607;28;19910;-78
2024/04/07 07:05:23;;;;;;;;;;;20.00;55.50;;;;;;4994528;28;19917;-79
2024/04/07 07:07:49;;;;;;;;;;;20.00;55.50;;;;;;4994441;28;19976;-76
2024/04/07 07:10:14;;;;;;;;;;;20.10;55.50;;;;;;4993587;28;19976;-78
2024/04/07 07:12:40;;;;;;;;;;;20.00;55.50;;;;;;4994418;28;19910;-78
2024/04/07 07:15:05;;;;;;;;;;;20.10;56.20;;;;;;4994629;28;19910;-79
2024/04/07 07:17:31;;;;;;;;;;;20.10;56.20;;;;;;5009321;28;20361;-78
2024/04/07 07:19:57;;;;;;;;;;;20.00;55.00;;;;;;4994757;28;20269;-78
2024/04/07 07:22:22;;;;;;;;;;;20.10;55.70;;;;;;4994201;28;19910;-81
2024/04/07 07:24:48;;;;;;;;;;;20.10;55.70;;;;;;4994181;28;19917;-78
2024/04/07 07:27:13;;;;;;;;;;;20.00;55.80;;;;;;4993950;28;20005;-79
2024/04/07 07:29:39;;;;;;;;;;;20.00;55.90;;;;;;4992674;28;20016;-78
2024/04/07 07:32:06;;;;;;;;;;;20.10;56.00;;;;;;4994251;28;19910;-79
2024/04/07 07:34:32;;;;;;;;;;;20.00;56.10;;;;;;5008986;28;19910;-78
2024/04/07 07:36:57;;;;;;;;;;;20.00;55.60;;;;;;4993893;28;20012;-80
2024/04/07 07:39:22;;;;;;;;;;;20.00;56.10;;;;;;4994036;28;20376;-83
2024/04/07 07:41:48;;;;;;;;;;;20.00;56.20;;;;;;4994078;28;19910;-81
2024/04/07 07:44:13;;;;;;;;;;;20.00;56.30;;;;;;4993777;28;19956;-83
2024/04/07 07:46:39;;;;;;;;;;;20.00;56.30;;;;;;4993813;28;19910;-78
2024/04/07 07:49:05;;;;;;;;;;;19.90;56.50;;;;;;4994194;28;19984;-78
2024/04/07 07:51:31;;;;;;;;;;;20.00;56.40;;;;;;4993573;28;19913;-78
2024/04/07 07:53:56;;;;;;;;;;;20.00;56.70;;;;;;4993641;28;20451;-78
2024/04/07 07:56:22;;;;;;;;;;;20.00;56.70;;;;;;4993603;28;19910;-78
2024/04/07 07:58:47;;;;;;;;;;;20.10;56.80;;;;;;4993584;28;20009;-78
2024/04/07 08:01:13;;;;;;;;;;;20.10;56.80;;;;;;4993612;28;20403;-78
2024/04/07 08:03:38;;;;;;;;;;;20.10;56.90;;;;;;4993493;28;19990;-78
2024/04/07 08:06:04;;;;;;;;;;;20.10;57.10;;;;;;4993348;28;20009;-78
2024/04/07 08:08:30;;;;;;;;;;;20.10;56.90;;;;;;4993181;28;20376;-78
2024/04/07 08:10:56;;;;;;;;;;;20.10;57.00;;;;;;4993267;28;19910;-78
2024/04/07 08:13:21;;;;;;;;;;;20.10;56.90;;;;;;4993191;28;20009;-78
2024/04/07 08:15:47;;;;;;;;;;;20.10;57.50;;;;;;4993276;28;20009;-78
2024/04/07 08:18:13;;;;;;;;;;;20.10;57.30;;;;;;4993638;28;19910;-78
2024/04/07 08:20:39;;;;;;;;;;;20.10;57.20;;;;;;4993047;28;19910;-78
2024/04/07 08:23:05;;;;;;;;;;;20.10;57.40;;;;;;4992940;28;19909;-77
2024/04/07 08:25:30;;;;;;;;;;;20.20;57.50;;;;;;4992883;28;19910;-77
2024/04/07 08:27:56;;;;;;;;;;;20.20;57.70;;;;;;4992924;28;19918;-78
2024/04/07 08:30:21;;;;;;;;;;;20.20;57.60;;;;;;4992960;28;19965;-77
2024/04/07 08:32:47;;;;;;;;;;;20.20;57.70;;;;;;4992798;28;19914;-77
2024/04/07 08:35:13;;;;;;;;;;;20.20;57.80;;;;;;4992717;28;19910;-77
2024/04/07 08:37:39;;;;;;;;;;;20.30;57.30;;;;;;4992475;28;20336;-77
2024/04/07 08:40:07;;;;;;;;;;;20.30;57.70;;;;;;4992698;28;20000;-76
2024/04/07 08:42:32;;;;;;;;;;;20.30;57.10;;;;;;4992581;28;19909;-76
2024/04/07 08:45:00;;;;;;;;;;;20.30;57.70;;;;;;4993279;28;19917;-77
2024/04/07 08:47:28;;;;;;;;;;;20.30;58.60;;;;;;4992410;28;19983;-77
2024/04/07 08:49:53;;;;;;;;;;;20.40;59.10;;;;;;4992595;28;20419;-77
2024/04/07 08:52:20;;;;;;;;;;;20.40;58.40;;;;;;4992652;28;19909;-77
2024/04/07 08:54:46;;;;;;;;;;;20.40;58.50;;;;;;4992462;28;20347;-77
2024/04/07 08:57:13;;;;;;;;;;;20.40;58.50;;;;;;5007569;28;19909;-77
2024/04/07 08:59:39;;;;;;;;;;;20.50;58.20;;;;;;4992425;28;20273;-77
2024/04/07 09:02:05;;;;;;;;;;;20.50;58.00;;;;;;4992473;28;19961;-77
2024/04/07 09:04:32;;;;;;;;;;;20.50;58.30;;;;;;4992354;28;19910;-77
2024/04/07 09:07:03;;;;;;;;;;;20.60;58.60;;;;;;4992570;28;19914;-77
2024/04/07 09:09:29;;;;;;;;;;;20.60;57.90;;;;;;5007080;28;19921;-77
2024/04/07 09:11:54;;;;;;;;;;;20.60;57.50;;;;;;4992174;28;19909;-77
2024/04/07 09:14:20;;;;;;;;;;;21.20;58.10;;;;;;4992813;28;20412;-77
2024/04/07 09:16:45;;;;;;;;;;;20.70;57.70;;;;;;4992164;28;19918;-78
2024/04/07 09:19:11;;;;;;;;;;;20.70;57.80;;;;;;4990878;28;20346;-78
2024/04/07 09:21:36;;;;;;;;;;;20.80;57.40;;;;;;4996936;28;20012;-78
2024/04/07 09:24:02;;;;;;;;;;;20.80;57.30;;;;;;4992162;28;19910;-78
2024/04/07 09:26:27;;;;;;;;;;;20.80;57.20;;;;;;4992277;28;19949;-77
2024/04/07 09:28:53;;;;;;;;;;;20.90;57.20;;;;;;4992031;28;20339;-77
2024/04/07 09:31:19;;;;;;;;;;;20.90;57.20;;;;;;4992270;28;20518;-77
2024/04/07 09:33:47;;;;;;;;;;;21.00;57.20;;;;;;4992876;28;20380;-77
2024/04/07 09:36:13;;;;;;;;;;;21.10;56.50;;;;;;4996080;28;19917;-78
2024/04/07 09:38:38;;;;;;;;;;;21.00;57.00;;;;;;4995991;28;19922;-76
2024/04/07 09:41:04;;;;;;;;;;;21.10;57.20;;;;;;4994746;28;19957;-77
2024/04/07 09:43:30;;;;;;;;;;;21.10;57.00;;;;;;4996526;28;20352;-77
2024/04/07 09:45:56;;;;;;;;;;;21.20;56.90;;;;;;4996036;28;19916;-76
2024/04/07 09:48:25;;;;;;;;;;;21.30;56.90;;;;;;4995911;28;20266;-76
2024/04/07 09:50:57;;;;;;;;;;;21.30;56.70;;;;;;4995834;28;19910;-76
2024/04/07 09:53:27;;;;;;;;;;;21.40;56.20;;;;;;4996238;28;20256;-77
2024/04/07 09:55:55;;;;;;;;;;;21.40;56.70;;;;;;4995817;28;19910;-76
2024/04/07 09:58:23;;;;;;;;;;;21.50;56.50;;;;;;4995755;28;19955;-76
2024/04/07 10:00:48;;;;;;;;;;;21.50;56.40;;;;;;4995613;28;19910;-77
2024/04/07 10:03:14;;;;;;;;;;;21.60;56.50;;;;;;4995641;28;19928;-77
2024/04/07 10:05:40;;;;;;;;;;;21.60;56.80;;;;;;4995690;28;19924;-77
2024/04/07 10:08:07;;;;;;;;;;;21.70;56.20;;;;;;5010419;28;19921;-75
2024/04/07 10:10:32;;;;;;;;;;;21.80;55.80;;;;;;4995641;28;19916;-76
2024/04/07 10:13:07;;;;;;;;;;;21.80;56.20;;;;;;4995587;28;20000;-76
2024/04/07 10:15:34;;;;;;;;;;;21.60;55.00;;;;;;4995562;28;19909;-78
2024/04/07 10:18:08;;;;;;;;;;;21.90;55.70;;;;;;4995417;28;19918;-76
2024/04/07 10:20:34;;;;;;;;;;;22.00;55.70;;;;;;4995507;28;19953;-77
2024/04/07 10:23:00;;;;;;;;;;;22.10;55.70;;;;;;4995387;28;20013;-75
2024/04/07 10:25:32;;;;;;;;;;;22.10;55.60;;;;;;4995373;28;19916;-75
2024/04/07 10:27:59;;;;;;;;;;;22.10;55.30;;;;;;4995201;28;20303;-77
2024/04/07 10:30:25;;;;;;;;;;;22.60;55.70;;;;;;4995254;28;19920;-78
2024/04/07 10:32:51;;;;;;;;;;;22.30;55.20;;;;;;4995180;28;20475;-77
2024/04/07 10:35:22;;;;;;;;;;;22.40;55.50;;;;;;4995075;28;20020;-76
2024/04/07 10:37:50;;;;;;;;;;;22.40;54.30;;;;;;4996175;28;19949;-77
2024/04/07 10:40:16;;;;;;;;;;;22.50;54.80;;;;;;4995016;28;19910;-77
2024/04/07 10:42:42;;;;;;;;;;;22.50;54.70;;;;;;4994920;28;19914;-77
2024/04/07 10:45:09;;;;;;;;;;;22.60;54.50;;;;;;4994830;28;19916;-77
2024/04/07 10:47:35;;;;;;;;;;;23.10;54.90;;;;;;4994771;28;19920;-76
2024/04/07 10:50:00;;;;;;;;;;;22.70;54.50;;;;;;4994958;28;19997;-77
2024/04/07 10:52:31;;;;;;;;;;;22.70;54.40;;;;;;4993442;28;19964;-79
2024/04/07 10:54:57;;;;;;;;;;;22.80;53.80;;;;;;5001415;28;19914;-77
2024/04/07 10:57:23;;;;;;;;;;;22.90;54.30;;;;;;4994694;28;20427;-76
2024/04/07 10:59:49;;;;;;;;;;;23.00;54.10;;;;;;4994825;28;19914;-79
2024/04/07 11:02:14;;;;;;;;;;;23.10;54.10;;;;;;4994666;28;19910;-80
2024/04/07 11:04:41;;;;;;;;;;;23.10;53.70;;;;;;4995028;28;19948;-80
2024/04/07 11:07:06;;;;;;;;;;;23.20;53.90;;;;;;4995037;28;19914;-75
2024/04/07 11:09:32;;;;;;;;;;;23.20;53.80;;;;;;4994522;28;20364;-74
2024/04/07 11:11:59;;;;;;;;;;;24.00;53.90;;;;;;4994504;28;19914;-76
2024/04/07 11:14:28;;;;;;;;;;;23.40;53.30;;;;;;4994520;28;20060;-76
2024/04/07 11:16:54;;;;;;;;;;;23.40;52.50;;;;;;4994420;28;19909;-77
2024/04/07 11:19:23;;;;;;;;;;;23.50;53.20;;;;;;4992983;28;19917;-77
2024/04/07 11:21:49;;;;;;;;;;;23.20;52.30;;;;;;4994301;28;20027;-78
2024/04/07 11:24:15;;;;;;;;;;;23.60;52.80;;;;;;4994236;28;20373;-76
2024/04/07 11:26:40;;;;;;;;;;;23.70;52.80;;;;;;4992987;28;19965;-76
2024/04/07 11:29:06;;;;;;;;;;;23.80;52.80;;;;;;4992739;28;19925;-75
2024/04/07 11:31:31;;;;;;;;;;;23.80;52.50;;;;;;4994169;28;19917;-75
2024/04/07 11:33:57;;;;;;;;;;;23.90;52.30;;;;;;4994474;28;19913;-73
2024/04/07 11:36:23;;;;;;;;;;;24.00;51.50;;;;;;4993734;28;19910;-75
2024/04/07 11:38:49;;;;;;;;;;;24.00;52.00;;;;;;4994128;28;19917;-76
2024/04/07 11:41:14;;;;;;;;;;;24.10;51.90;;;;;;4993901;28;19910;-76
2024/04/07 11:43:40;;;;;;;;;;;24.10;51.70;;;;;;4993951;28;19956;-76
2024/04/07 11:46:05;;;;;;;;;;;24.20;51.60;;;;;;4993900;28;20008;-76
2024/04/07 11:48:30;;;;;;;;;;;24.30;51.70;;;;;;4992330;28;19976;-77
2024/04/07 11:50:56;;;;;;;;;;;24.30;51.70;;;;;;4992450;28;19980;-77
2024/04/07 11:53:21;;;;;;;;;;;24.40;51.30;;;;;;5008592;28;19917;-79
2024/04/07 11:55:47;;;;;;;;;;;24.40;51.20;;;;;;4993552;28;19956;-77
2024/04/07 11:58:12;;;;;;;;;;;24.50;51.80;;;;;;4991748;28;20554;-78
2024/04/07 12:00:38;;;;;;;;;;;24.50;51.60;;;;;;4993589;28;19909;-78
2024/04/07 12:03:04;;;;;;;;;;;24.70;51.10;;;;;;4993579;28;19928;-77
2024/04/07 12:05:29;;;;;;;;;;;24.80;50.80;;;;;;4993522;28;19909;-77
2024/04/07 12:07:54;;;;;;;;;;;24.80;50.70;;;;;;4991884;28;19980;-81
2024/04/07 12:10:20;;;;;;;;;;;24.80;50.60;;;;;;4993586;28;19910;-77
2024/04/07 12:12:45;;;;;;;;;;;24.90;50.40;;;;;;4993317;28;20388;-78
2024/04/07 12:15:11;;;;;;;;;;;24.90;50.30;;;;;;4993225;28;19917;-78
2024/04/07 12:17:36;;;;;;;;;;;25.00;50.40;;;;;;4993163;28;20625;-78
2024/04/07 12:20:03;;;;;;;;;;;25.10;50.30;;;;;;4993185;28;19910;-78
2024/04/07 12:22:37;;;;;;;;;;;25.20;49.90;;;;;;4993616;28;19909;-78
2024/04/07 12:25:03;;;;;;;;;;;25.20;49.60;;;;;;4993177;28;19992;-78
2024/04/07 12:27:29;;;;;;;;;;;25.30;49.90;;;;;;4992946;28;19916;-78
2024/04/07 12:29:56;;;;;;;;;;;25.40;50.80;;;;;;4993344;28;20340;-78
2024/04/07 12:32:22;;;;;;;;;;;25.50;49.90;;;;;;4993165;28;19964;-78
2024/04/07 12:34:48;;;;;;;;;;;25.50;50.10;;;;;;4993084;28;20403;-78
2024/04/07 12:37:15;;;;;;;;;;;25.60;49.80;;;;;;4992899;28;19922;-78
2024/04/07 12:39:41;;;;;;;;;;;26.10;50.90;;;;;;4993105;28;20369;-78
2024/04/07 12:42:07;;;;;;;;;;;25.70;50.40;;;;;;4993201;28;19910;-78
2024/04/07 12:44:33;;;;;;;;;;;25.70;50.20;;;;;;4992720;28;20356;-78
2024/04/07 12:46:59;;;;;;;;;;;26.10;50.70;;;;;;4992955;28;19953;-78
2024/04/07 12:49:24;;;;;;;;;;;25.80;50.30;;;;;;4993220;28;19922;-77
2024/04/07 12:51:50;;;;;;;;;;;25.80;50.10;;;;;;4992987;28;19910;-77
2024/04/07 12:54:16;;;;;;;;;;;25.80;50.40;;;;;;4993078;28;19910;-78
2024/04/07 12:56:42;;;;;;;;;;;26.00;50.50;;;;;;4992952;28;20621;-78
2024/04/07 12:59:08;;;;;;;;;;;26.00;49.90;;;;;;4996131;28;19910;-78
2024/04/07 13:01:35;;;;;;;;;;;26.10;49.50;;;;;;4992841;28;19964;-78
2024/04/07 13:04:01;;;;;;;;;;;26.10;49.20;;;;;;4992942;28;19914;-78
2024/04/07 13:06:27;;;;;;;;;;;26.10;49.30;;;;;;4992603;28;19914;-78
2024/04/07 13:08:53;;;;;;;;;;;26.20;49.80;;;;;;4991665;28;19964;-78
2024/04/07 13:11:19;;;;;;;;;;;26.30;49.30;;;;;;4992529;28;20281;-79
2024/04/07 13:13:45;;;;;;;;;;;26.30;49.50;;;;;;4993150;28;19910;-78
2024/04/07 13:16:11;;;;;;;;;;;26.30;49.20;;;;;;4992777;28;19910;-78
2024/04/07 13:18:37;;;;;;;;;;;26.30;48.60;;;;;;4993153;28;19910;-79
2024/04/07 13:21:03;;;;;;;;;;;26.20;48.80;;;;;;4992640;28;19941;-78
2024/04/07 13:23:30;;;;;;;;;;;26.20;48.90;;;;;;4992748;28;19910;-78
2024/04/07 13:25:56;;;;;;;;;;;26.20;49.50;;;;;;4992376;28;19995;-78
2024/04/07 13:28:22;;;;;;;;;;;26.10;49.40;;;;;;4992594;28;20291;-78
2024/04/07 13:30:51;;;;;;;;;;;25.90;49.90;;;;;;4992354;28;19914;-78
2024/04/07 13:33:17;;;;;;;;;;;25.80;49.10;;;;;;4992556;28;19910;-78
2024/04/07 13:35:44;;;;;;;;;;;25.90;50.40;;;;;;4992619;28;19910;-78
2024/04/07 13:38:10;;;;;;;;;;;25.90;49.70;;;;;;4992107;28;19925;-78
2024/04/07 13:40:36;;;;;;;;;;;25.80;50.40;;;;;;4992165;28;20376;-78
2024/04/07 13:43:02;;;;;;;;;;;25.80;50.40;;;;;;4992515;28;20292;-78
2024/04/07 13:45:28;;;;;;;;;;;25.30;49.90;;;;;;4992475;28;20005;-78
2024/04/07 13:47:54;;;;;;;;;;;25.80;50.10;;;;;;4992880;28;19941;-78
2024/04/07 13:50:20;;;;;;;;;;;25.90;50.40;;;;;;4992507;28;19917;-78
2024/04/07 13:52:48;;;;;;;;;;;25.90;49.60;;;;;;4992541;28;19921;-78
2024/04/07 13:55:14;;;;;;;;;;;25.90;49.60;;;;;;4992469;28;19910;-78
2024/04/07 13:57:40;;;;;;;;;;;26.00;50.00;;;;;;4992077;28;19917;-77
2024/04/07 14:00:09;;;;;;;;;;;26.00;49.80;;;;;;4992035;28;20372;-77
2024/04/07 14:02:39;;;;;;;;;;;26.10;49.50;;;;;;4992041;28;20361;-78
2024/04/07 14:05:05;;;;;;;;;;;26.20;48.20;;;;;;4992320;28;20028;-77
2024/04/07 14:07:31;;;;;;;;;;;26.60;49.70;;;;;;4992354;28;19910;-77
2024/04/07 14:09:57;;;;;;;;;;;26.20;49.40;;;;;;4992202;28;20053;-77
2024/04/07 14:12:23;;;;;;;;;;;26.30;49.40;;;;;;4992347;28;20033;-77
2024/04/07 14:14:50;;;;;;;;;;;26.30;49.50;;;;;;4992647;28;20296;-77